ACT        NSW        VIC        QLD        SA        WA        TAS        NT        INFO        CALC            by VK5ZD

Past Date/Time: (dd/mm/yyyy hh:mm or blank for current data)    

  Atmospheric Gas Attenuation - ITU Rec 676-11   --------------- dB/100km ---------------
WA Stations Date Time Temp RH % AH g/m3 Dew Point Wind Direction Speed kph Gust kph Barometer mB Rainfall Since 9am 24GHz 47GHz 76GHz 122GHz 134GHz 241GHz
Albany Airport 10/05 06:30 8.2 90 7.54 6.7 9 11 1027.9 0 17.6 26.3 38.9 101.7 92.1 315.6
Badgingarra 10/05 06:30 9.7 63 5.81 3 17 22 1013.1 0 13.8 22.6 30.7 80.1 66.8 227.2
Barimunya 10/05 06:30 13.7 29 3.43 -4 19 28 1020 0 8.6 18.6 21.3 54.9 36.9 122.4
Barrow Island 10/05 06:30 22.8 46 9.35 10.6 39 44 1017.1 0 20.7 24.7 38.5 100.9 97.0 334.6
Bedout Island 10/05 06:30 23.1 51 10.54 12.4 48 57 1016.1 0 23.2 26.3 42.7 112.3 111.1 383.9
Bickley 10/05 06:30 8.5 77 6.58 4.7 19 24 1013.1 0 15.5 24.1 34.2 89.4 77.8 265.5
Boolgeeda 10/05 06:30 13.8 27 3.22 -4.8 11 15 1018.6 0 8.2 18.2 20.6 53.0 34.5 114.2
Bridgetown 10/05 06:30 1.7 98 5.34 1.4 0 0 1026.9 0 13.1 24.5 32.5 84.7 68.4 231.4
Broome 10/05 06:30 19.2 42 6.92 6 11 17 1015.5 0 15.8 22.0 31.2 81.6 72.0 246.6
Bunbury 10/05 06:30 6.9 100 7.7 6.9 6 7 1025.9 0 18.0 26.9 40.1 105.1 95.8 328.3
Busselton Airport 10/05 06:30 5.9 82 5.92 3.1 13 13 1025.4 0 14.2 24.2 33.1 86.4 72.4 246.0
Cape Leeuwin 10/05 06:30 13.5 56 6.55 4.9 32 39 1024.8 0 15.2 23.2 32.5 84.7 73.4 250.5
Cape Naturaliste 10/05 06:30 16.8 71 10.15 11.5 35 43 1024.7 0 22.7 28.0 45.0 118.2 115.9 400.2
Carnarvon 10/05 06:30 10.8 47 4.65 0 15 17 1020.3 0 11.3 20.9 26.3 68.3 52.3 176.1
Christmas Creek 10/05 06:30 11.6 29 3.01 -5.8 6 11 1021 0 7.8 18.4 20.5 52.7 33.3 109.4
Christmas Island 10/05 06:30 25.8 89 21.43 23.8 17 28 1009.9 0 46.1 44.2 87.9 232.7 260.1 903.5
Cocos Island 10/05 06:30 27.5 86 22.75 24.9 20 30 1008.9 0.2 48.7 45.9 92.3 244.5 275.1 956.1
Collie East 10/05 06:30 1.1 94 4.92 0.2 0 0 1013.1 0 12.2 23.4 30.5 79.4 62.3 210.3
Coondewanna 10/05 06:30 5.8 42 3.01 -6.1 4 7 1020.1 0 8.0 19.6 22.0 56.5 35.7 117.3
Cunderdin Airport 10/05 06:30 8.4 79 6.7 5 11 13 1027.7 0 15.8 24.9 35.3 92.2 80.5 274.8
Curtin 10/05 06:30 18.3 46 7.19 6.5 20 28 1014.3 0 16.4 22.6 32.5 84.9 75.9 260.2
Dalwallinu 10/05 06:30 6.8 75 5.74 2.7 9 9 1026 0 13.8 23.7 32.1 83.5 69.2 235.0
Dwellingup 10/05 06:30 7.1 86 6.71 4.9 20 24 1026.7 0 15.8 25.2 35.9 93.7 81.9 279.6
Eliwana Airport 10/05 06:30 12.5 28 3.08 -5.5 13 15 1013.1 0 7.9 18.1 20.3 52.2 33.4 110.1
Esperance 10/05 06:30 11.7 95 9.94 10.9 9 15 1031.1 0 22.5 29.5 47.4 124.5 121.5 418.8
Esperance Airport 10/05 06:30 11.3 97 9.9 10.8 13 20 1030.7 0 22.5 29.6 47.5 124.7 121.5 418.8
Eucla 10/05 06:30 15.4 88 11.56 13.4 9 13 1030.4 0.4 25.8 31.1 52.2 137.2 138.5 478.8
Eyre 10/05 06:00 13 99 11.23 12.8 2 1030.9 0 25.2 31.4 52.3 137.6 138.1 477.1
Fitzroy Crossing 10/05 06:30 15 67 8.59 8.9 1015.9 0 19.5 25.6 39.3 103.0 97.0 333.6
Forrest 10/05 06:30 12.3 94 10.21 11.4 13 15 1030.3 0 23.1 29.8 48.2 126.6 124.4 428.9
Fortescue Dave Forrest 10/05 06:30 10.5 34 3.3 -4.7 9 13 1020.3 0 8.5 19.0 21.7 56.0 36.9 122.1
Garden Island 10/05 06:30 15 66 8.46 8.7 20 32 1026 0 19.2 25.8 39.2 102.7 96.1 330.4
Geraldton Airport 10/05 06:30 11.8 46 4.84 0.6 20 24 1023.1 0 11.7 21.0 26.8 69.4 54.0 182.2
Gerangamete (Cfa) 10/05 08:20 9.2 100 8.93 9.2 4 7 1013.1 0.2 20.5 27.8 43.6 114.6 109.1 375.4
Giles* 10/05 08:00 11.9 58 6.14 3.9 9 9 1023.8 0 14.4 22.9 31.5 82.1 69.7 237.4
Gingin Airport 10/05 06:30 12.4 60 6.56 4.9 13 20 1026 0 15.3 23.5 33.0 86.1 74.6 254.7
Golden Grove 10/05 06:30 9.4 64 5.79 2.9 13 19 1025 0 13.8 23.1 31.2 81.3 67.5 229.5
Gooseberry Hill 10/05 06:30 12.5 61 6.71 5.2 33 46 1013.1 0 15.6 23.3 33.0 86.3 75.5 258.2
Gudai-Darri Mine 10/05 06:30 14.6 27 3.38 -4.2 24 35 1013.1 0 8.5 18.1 20.7 53.4 35.7 118.4
Halls Creek 10/05 08:00 16.5 53 7.44 6.9 13 15 1016.8 0 17.0 23.5 34.2 89.6 80.8 277.3
Hopetoun North 10/05 06:30 7.2 99 7.78 7.1 11 11 1029.5 0.2 18.1 27.1 40.5 106.0 96.9 332.0
Iron Bridge Mine 10/05 06:30 17.6 24 3.6 -3.2 15 22 1018.2 0 8.9 18.0 20.8 53.7 36.9 122.8
Jacup 10/05 06:30 6.3 92 6.81 5.1 11 15 1028.9 0 16.1 25.7 36.8 96.0 84.3 287.8
Jandakot 10/05 06:30 13.1 61 6.96 5.8 19 24 1026.2 0 16.1 24.0 34.2 89.4 79.0 270.1
Kalgoorlie-Boulder 10/05 06:30 9.3 98 8.81 9 13 15 1028.6 0 20.2 28.2 43.8 114.8 108.6 373.5
Kalumburu 10/05 08:00 22.2 57 11.19 13.5 7 11 1014.2 0 24.6 27.6 45.6 120.0 120.4 416.7
Karijini North 10/05 06:30 16.7 22 3.13 -5.1 20 28 1019.3 0 7.9 17.6 19.6 50.4 32.4 107.1
Karratha 10/05 06:30 18.2 29 4.51 -0.1 19 20 1017.6 0 10.8 19.0 23.5 61.0 46.1 155.3
Katanning Rs 10/05 06:30 6.4 87 6.49 4.4 0 6 1028.2 0 15.4 25.1 35.4 92.3 79.7 271.9
Koolan Island / Koolan Central 10/05 06:30 24.2 56 12.32 15.1 22 28 1013.1 0 26.9 28.7 48.8 128.6 131.7 456.2
Kununurra Airport 10/05 08:00 19.1 72 11.8 13.9 0 0 1015.9 0 26.1 29.6 50.0 131.8 133.8 462.9
Lake Grace 10/05 06:30 8.9 85 7.45 6.5 11 17 1028.5 0 17.3 26.0 38.2 99.9 90.1 308.6
Lancelin (Defence) 10/05 06:30 12.3 56 6.08 3.8 19 26 1024.4 0 14.3 22.8 31.2 81.2 68.6 233.7
Laverton 10/05 06:30 8.8 99 8.62 8.7 17 20 1027.1 0 19.9 28.0 43.2 113.1 106.5 366.0
Learmonth 10/05 06:30 11.4 64 6.57 4.8 13 17 1018.9 0 15.4 23.5 33.2 86.6 75.2 256.8
Legendre Island 10/05 06:30 23.2 44 9.15 10.3 44 56 1016.8 0 20.3 24.3 37.5 98.5 94.1 324.5
Leinster 10/05 06:30 7 82 6.36 4.1 9 9 1025.1 0 15.1 24.6 34.4 89.9 77.2 263.0
Leonora Airport 10/05 06:30 7.2 85 6.68 4.9 2 7 1027.3 0 15.8 25.2 35.8 93.3 81.4 278.0
Lombadina 10/05 06:30 20 58 10.02 11.5 15 26 1014.1 0 22.3 26.4 42.2 111.1 108.7 375.2
Mandora 10/05 06:30 17.4 34 5.04 1.4 13 22 1017.1 0 11.9 19.9 25.5 66.2 52.3 177.0
Mandurah 10/05 06:30 14.9 58 7.39 6.7 15 20 1025.8 0 17.0 24.1 35.1 91.7 82.5 282.8
Manjimup 10/05 06:30 9.3 74 6.65 4.9 19 26 1026.5 0 15.6 24.5 34.7 90.5 78.8 269.1
Marble Bar 10/05 06:30 16.9 26 3.74 -2.7 13 17 1019 0 9.2 18.3 21.5 55.4 38.7 129.1
Mardie 10/05 06:30 18.9 26 4.21 -1 22 26 1017.9 0 10.1 18.5 22.4 57.9 42.6 143.0
Meekatharra 10/05 06:30 8.9 54 4.73 0.1 11 15 1024 0 11.5 21.5 27.4 71.0 54.7 184.3
Millendon (Swan Valley) 10/05 06:30 14.5 55 6.84 5.6 9 15 1026.1 0 15.8 23.4 33.2 86.6 76.1 260.2
Morawa Airport 10/05 06:30 8.9 62 5.43 2 13 17 1024.8 0 13.0 22.6 30.0 78.1 63.4 214.9
Mount Keith 10/05 06:30 8.6 72 6.19 3.8 11 15 1025.5 0 14.7 23.9 33.1 86.3 73.4 250.0
Mount Magnet Airport 10/05 06:30 10.6 57 5.56 2.4 9 11 1024.9 0 13.2 22.4 29.9 77.7 63.6 216.0
Munglinup West 10/05 06:30 8.3 97 8.18 7.9 13 17 1029.9 0.4 18.9 27.5 41.6 109.1 101.1 347.1
Newdegate 10/05 06:30 3.3 90 5.47 1.8 4 6 1028.6 0 13.3 24.3 32.5 84.6 68.9 233.3
Newman Airport 10/05 06:30 7.5 37 2.96 -6.2 6 7 1021.2 0 7.8 19.2 21.4 55.0 34.4 112.9
Norseman Airport 10/05 06:30 9.4 95 8.59 8.6 7 9 1029.8 0 19.8 27.9 42.8 112.2 105.5 362.4
North Island 10/05 06:30 20 44 7.6 7.4 37 46 1022 0 17.2 23.0 33.6 87.8 79.6 273.3
Onslow Airport 10/05 06:30 15.7 44 5.89 3.5 17 19 1018.8 0 13.8 21.5 29.0 75.6 63.2 215.2
Paraburdoo 10/05 06:30 13.9 24 2.88 -6.3 9 13 1019.6 0 7.5 17.8 19.5 50.1 30.9 101.5
Pearce 10/05 06:30 14.2 53 6.47 4.8 20 30 1025.7 0 15.0 22.9 31.9 83.2 71.8 245.1
Perth 10/05 06:30 7.2 88 6.91 5.3 6 9 1026.3 0 16.3 25.5 36.7 95.8 84.5 288.7
Perth Airport 10/05 06:30 11.8 63 6.63 5 11 11 1026.2 0 15.5 23.8 33.5 87.5 76.1 259.8
Port Hedland 10/05 06:30 17.8 31 4.7 0.5 17 24 1017.3 0 11.2 19.3 24.2 62.9 48.3 163.2
Portable Btsa (Dfes) 10/05 06:20 14.5 31 3.86 -2.3 0 0 1013.1 0 9.5 18.7 22.3 57.7 40.9 136.7
Portable Btsb (Dfes) 10/05 06:20 9.1 72 6.39 4.4 9 11 1013.1 0 15.1 23.7 33.2 86.7 74.7 254.9
Portable Btsd (Dfes) 10/05 06:20 6.6 92 6.95 5.4 11 11 1013.1 0 16.4 25.2 36.5 95.6 84.7 289.7
Portable Btsf (Dfes) 10/05 05:00 10.4 59 5.69 2.9 17 20 1013.1 0 13.5 22.2 30.0 78.2 64.7 220.0
Portable Btsh (Dfes) 10/05 06:20 12 100 10.66 12 0 0 1013.1 0.6 24.1 30.0 49.5 130.4 129.7 447.6
Portable Btsj (Dfes) 10/05 06:20 13.6 58 6.83 5.6 9 11 1013.1 0 15.8 23.2 33.0 86.3 76.0 259.9
Portable Btsk (Dfes) 10/05 06:20 11.9 42 4.45 -0.4 7 7 1013.1 0 10.8 20.1 25.0 64.9 48.9 164.5
Portable Btsl (Dfes) 10/05 06:20 12.5 97 10.67 12 9 13 1013.1 0.2 24.1 29.8 49.2 129.6 129.0 445.1
Portable Btsm (Dfes) 10/05 06:20 6.6 44 3.32 -4.6 0 0 1013.1 0 8.6 19.6 22.6 58.4 38.7 128.0
Portable Btsn (Dfes) 10/05 06:20 9.7 65 5.99 3.5 9 11 1013.1 0 14.2 22.9 31.4 81.9 69.1 235.1
Portable Btso (Dfes) 10/05 06:20 2 92 5.12 0.9 0 0 1013.1 0 12.6 23.5 30.9 80.7 64.3 217.3
Red Rocks Point 10/05 06:30 16.5 73 10.25 11.6 6 17 1030.7 1 22.9 28.4 45.9 120.5 118.3 408.3
Rocky Gully South 10/05 06:30 8.5 81 6.92 5.4 19 24 1013.1 0 16.2 24.7 35.5 93.0 82.3 281.3
Roebourne Airport 10/05 06:30 17.9 29 4.43 -0.4 19 20 1018.1 0 10.6 19.0 23.4 60.5 45.4 153.0
Rottnest Island 10/05 06:30 15.8 58 7.81 7.6 33 43 1025.2 0 17.8 24.5 36.3 94.9 86.8 297.9
Salmon Gums Rs 10/05 06:30 9.8 100 9.28 9.8 4 6 1013.1 0 21.3 28.3 44.8 117.7 113.2 389.9
Shannon 10/05 06:30 9.5 81 7.38 6.4 13 20 1013.1 0 17.2 25.1 36.9 96.8 87.3 299.1
Shark Bay Airport 10/05 06:30 10.8 71 7.02 5.8 13 15 1020.5 0 16.3 24.5 35.2 92.1 81.7 279.5
Solomon Airport 10/05 06:30 12.2 31 3.35 -4.4 15 15 1018.4 0 8.5 18.7 21.4 55.1 36.6 121.3
Southern Cross Airport 10/05 06:30 5.6 90 6.37 4.1 6 9 1028.5 0 15.2 25.2 35.2 91.9 78.9 269.0
Swanbourne 10/05 06:30 13.1 69 7.87 7.5 19 30 1013.1 0 18.1 24.9 37.2 97.6 89.7 307.9
Telfer 10/05 06:30 12.1 37 3.97 -2.1 20 26 1019.7 0 9.8 19.6 23.5 60.8 43.6 145.9
Thevenard Island 10/05 06:30 22.4 36 7.15 6.6 35 50 1018.3 0 16.1 21.7 30.9 80.8 71.9 246.7
Troughton Island 10/05 08:00 26.6 52 13.09 16.2 39 46 1013.5 0 28.4 29.1 50.4 132.8 137.5 476.9
Walpole North 10/05 06:30 12.6 67 7.41 6.6 11 24 1026.1 0 17.1 24.8 36.2 94.6 85.2 292.1
Wandering 10/05 06:30 5.7 84 5.98 3.2 4 7 1013.1 0 14.3 23.9 32.9 86.1 72.6 246.8
Warburton 10/05 08:00 11.9 62 6.57 4.9 13 17 1025 0 15.3 23.6 33.2 86.6 75.1 256.5
West Angelas 10/05 06:30 11.5 31 3.2 -5 17 20 1019.2 0 8.2 18.7 21.1 54.3 35.3 116.6
West Musgrave Airport 10/05 06:30 11.6 61 6.34 4.3 9 11 1013.1 0 14.9 22.9 32.0 83.5 71.7 244.8
Wiluna Airport 10/05 06:30 6.6 69 5.21 1.3 7 9 1024.7 0 12.6 22.9 30.0 78.0 62.4 211.2
Witchcliffe West 10/05 06:30 11.3 76 7.75 7.2 13 17 1024.9 0 17.9 25.7 38.1 99.7 91.1 312.4
Wyndham Airport 10/05 08:00 23.2 43 8.94 9.9 13 17 1015 0 19.9 23.9 36.7 96.3 91.5 315.3
Yampi Sound (Defence) 10/05 06:30 16.1 83 11.38 13.2 4 6 1018.4 0 25.4 30.0 50.3 132.4 133.4 461.3

Last Refresh: 10-May-2026 08:12:41

Bureau of Meteorology